Terminal Aerodrome Forecast
Issued by NWS

Home | Current Version | Previous Version | Text Only | Print | Product List | Glossary On
Versions: 1 2 3 4 5 6 7 8 9 10 11 12 13 14 15 16 17 18
000
FTAK31 PANC 310544
TAFADL
TAF
PADL 310544Z 3106/0106 02005KT P6SM SKC
     FM311000 36010KT P6SM SKC
     FM311400 01012G20KT P6SM VCSH OVC050
     FM312000 01015G22KT P6SM -SN BKN020 OVC030
     FM010000 03018G28KT 3SM -SN BLSN BKN010 OVC020
      AMD LTD TO CLD VIS AND WIND 3107/3116=

USA.gov is the U.S. government's official web portal to all federal, state and local government web resources and services.